Time;durP1;ratioP1;P1;durP2;ratioP2;P2;SDS_P1;SDS_P2;PMS_P1;PMS_P2;Temp;Humidity;BMP_temperature;BMP_pressure;BME280_temperature;BME280_humidity;BME280_pressure;Samples;Min_cycle;Max_cycle;Signal;HPM_P1;HPM_P2
2021/06/17 00:02:17;;;;;;;4.80;2.17;;;20.30;69.00;;;;;;5028978;28;20030;-68
2021/06/17 00:04:43;;;;;;;6.30;2.47;;;20.30;68.60;;;;;;5028959;28;20410;-67
2021/06/17 00:07:09;;;;;;;6.80;2.00;;;20.40;68.70;;;;;;5028981;28;20091;-68
2021/06/17 00:09:34;;;;;;;3.92;1.90;;;20.40;68.50;;;;;;5028888;28;20045;-67
2021/06/17 00:12:01;;;;;;;5.07;2.38;;;20.40;68.30;;;;;;5028745;28;20037;-69
2021/06/17 00:14:31;;;;;;;5.10;2.38;;;20.40;68.60;;;;;;5028696;28;20018;-69
2021/06/17 00:16:59;;;;;;;5.18;2.03;;;20.30;68.60;;;;;;5028674;28;20021;-69
2021/06/17 00:19:25;;;;;;;3.95;2.20;;;20.30;68.90;;;;;;5028503;28;20112;-69
2021/06/17 00:21:51;;;;;;;4.82;2.17;;;20.30;69.20;;;;;;5028816;28;20057;-69
2021/06/17 00:24:17;;;;;;;4.03;2.22;;;20.30;69.40;;;;;;5028618;28;20134;-69
2021/06/17 00:26:43;;;;;;;4.60;1.73;;;20.20;69.80;;;;;;5028618;28;20029;-68
2021/06/17 00:29:09;;;;;;;5.57;2.35;;;20.10;70.20;;;;;;5028692;28;20024;-69
2021/06/17 00:31:35;;;;;;;2.95;1.77;;;20.00;70.60;;;;;;5028399;28;20114;-68
2021/06/17 00:34:01;;;;;;;3.72;2.20;;;20.00;70.90;;;;;;5028543;28;20124;-69
2021/06/17 00:36:26;;;;;;;3.80;2.05;;;19.90;70.80;;;;;;5027065;28;20099;-68
2021/06/17 00:38:52;;;;;;;4.53;2.15;;;19.90;71.20;;;;;;5028362;28;20025;-68
2021/06/17 00:41:18;;;;;;;7.50;2.97;;;19.80;71.10;;;;;;5027118;28;20095;-69
2021/06/17 00:43:44;;;;;;;5.03;2.50;;;19.90;71.00;;;;;;5028462;28;20038;-68
2021/06/17 00:46:12;;;;;;;15.10;2.67;;;19.90;70.40;;;;;;5026951;28;20467;-69
2021/06/17 00:48:37;;;;;;;6.85;2.45;;;20.00;70.00;;;;;;5028182;28;20032;-69
2021/06/17 00:51:04;;;;;;;7.00;2.22;;;20.10;69.70;;;;;;5028115;28;20022;-69
2021/06/17 00:53:31;;;;;;;6.43;2.58;;;20.20;69.40;;;;;;5028100;28;20038;-68
2021/06/17 00:55:58;;;;;;;3.58;1.88;;;20.30;69.30;;;;;;5028170;28;20025;-69
2021/06/17 00:58:25;;;;;;;5.60;2.92;;;20.30;69.10;;;;;;5028336;28;20036;-69
2021/06/17 01:00:51;;;;;;;6.07;2.33;;;20.40;68.80;;;;;;5028085;28;20034;-69
2021/06/17 01:03:17;;;;;;;16.67;2.67;;;20.50;68.50;;;;;;5028237;28;20032;-71
2021/06/17 01:05:43;;;;;;;6.60;2.58;;;20.50;68.30;;;;;;5032327;28;20034;-69
2021/06/17 01:08:18;;;;;;;8.10;2.22;;;20.50;68.00;;;;;;5032261;28;20036;-70
2021/06/17 01:10:54;;;;;;;3.72;2.00;;;20.60;68.70;;;;;;5032081;28;20029;-69
2021/06/17 01:13:25;;;;;;;3.83;2.03;;;20.60;67.60;;;;;;5031957;28;20041;-68
2021/06/17 01:16:09;;;;;;;7.40;2.90;;;20.60;67.60;;;;;;5032101;28;20060;-69
2021/06/17 01:18:38;;;;;;;5.20;2.45;;;20.60;67.70;;;;;;5032175;28;20113;-68
2021/06/17 01:21:12;;;;;;;4.78;2.28;;;20.60;67.70;;;;;;5032033;28;20430;-69
2021/06/17 01:24:03;;;;;;;4.90;2.25;;;20.50;67.70;;;;;;5031960;28;20033;-69
2021/06/17 01:27:07;;;;;;;5.75;2.47;;;20.50;67.40;;;;;;5032013;28;20075;-69
2021/06/17 01:29:35;;;;;;;6.30;2.15;;;20.50;67.50;;;;;;5030320;28;20490;-69
2021/06/17 01:32:03;;;;;;;4.88;2.65;;;20.40;67.30;;;;;;5031643;28;20129;-68
2021/06/17 01:34:30;;;;;;;5.82;2.17;;;20.40;67.40;;;;;;5031755;28;20390;-69
2021/06/17 01:37:05;;;;;;;6.10;2.60;;;20.30;67.40;;;;;;5031626;28;20052;-70
2021/06/17 01:39:32;;;;;;;3.25;2.05;;;20.30;67.60;;;;;;5031578;28;20060;-68
2021/06/17 01:42:01;;;;;;;4.78;2.38;;;20.20;67.80;;;;;;5031559;28;20079;-68
2021/06/17 01:44:27;;;;;;;6.53;1.95;;;20.10;67.70;;;;;;5030247;28;20112;-69
2021/06/17 01:46:54;;;;;;;5.03;2.53;;;20.10;67.70;;;;;;5031277;28;20033;-69
2021/06/17 01:49:20;;;;;;;7.78;2.78;;;20.10;68.00;;;;;;5031208;28;20025;-68
2021/06/17 01:51:48;;;;;;;5.45;2.65;;;20.00;68.10;;;;;;5031414;28;20032;-69
2021/06/17 01:54:26;;;;;;;8.52;2.33;;;20.00;68.00;;;;;;5031616;28;20127;-68
2021/06/17 01:56:53;;;;;;;3.05;1.98;;;20.00;69.00;;;;;;5029974;28;20041;-68
2021/06/17 01:59:22;;;;;;;4.30;2.65;;;20.00;69.10;;;;;;5029802;28;20127;-69
2021/06/17 02:01:50;;;;;;;8.68;2.53;;;19.90;68.70;;;;;;5030302;28;20033;-68
2021/06/17 02:04:19;;;;;;;5.95;2.50;;;19.90;68.90;;;;;;5030716;28;20135;-68
2021/06/17 02:06:45;;;;;;;5.00;3.13;;;19.80;69.30;;;;;;5030479;28;20045;-68
2021/06/17 02:09:12;;;;;;;3.90;2.28;;;19.80;69.30;;;;;;5030384;28;20572;-68
2021/06/17 02:11:38;;;;;;;5.10;2.28;;;19.70;69.40;;;;;;5029778;28;20036;-69
2021/06/17 02:14:07;;;;;;;5.43;2.35;;;19.70;69.60;;;;;;5029168;28;20740;-68
2021/06/17 02:16:33;;;;;;;5.75;2.58;;;19.70;69.80;;;;;;5028827;28;20048;-68
2021/06/17 02:19:00;;;;;;;4.57;2.03;;;19.60;69.90;;;;;;5028126;28;20038;-68
2021/06/17 02:21:30;;;;;;;6.30;2.58;;;19.60;70.30;;;;;;5028564;28;20112;-68
2021/06/17 02:23:58;;;;;;;4.60;1.95;;;19.50;70.90;;;;;;5026859;28;20033;-68
2021/06/17 02:26:26;;;;;;;5.15;2.45;;;19.40;71.10;;;;;;5026035;28;20040;-68
2021/06/17 02:28:53;;;;;;;6.35;2.58;;;19.40;71.60;;;;;;5029980;28;20136;-68
2021/06/17 02:31:24;;;;;;;4.97;2.47;;;19.30;72.20;;;;;;5029448;28;20557;-68
2021/06/17 02:33:50;;;;;;;4.55;2.30;;;19.10;73.30;;;;;;5029361;28;20029;-69
2021/06/17 02:36:25;;;;;;;6.72;2.72;;;19.00;73.70;;;;;;5028521;28;20485;-69
2021/06/17 02:38:55;;;;;;;8.85;3.85;;;18.90;74.20;;;;;;5029598;28;20040;-68
2021/06/17 02:41:22;;;;;;;5.72;2.63;;;18.90;75.00;;;;;;5029546;28;20037;-69
2021/06/17 02:43:53;;;;;;;7.55;2.78;;;18.80;75.80;;;;;;5029734;28;20033;-70
2021/06/17 02:46:20;;;;;;;8.52;2.67;;;18.70;76.40;;;;;;5030103;28;20021;-70
2021/06/17 02:48:46;;;;;;;11.65;3.05;;;18.60;76.70;;;;;;5030325;28;20022;-68
2021/06/17 02:51:12;;;;;;;3.33;2.08;;;18.60;77.00;;;;;;5030406;28;20112;-69
2021/06/17 02:53:37;;;;;;;4.38;2.08;;;18.50;77.10;;;;;;5030224;28;20044;-69
2021/06/17 02:56:11;;;;;;;8.98;2.40;;;18.50;77.10;;;;;;5030281;28;20039;-70
2021/06/17 02:59:05;;;;;;;9.13;3.15;;;18.40;77.10;;;;;;5030220;28;20026;-68
2021/06/17 03:01:53;;;;;;;7.28;2.55;;;18.50;77.40;;;;;;5028628;28;20417;-68
2021/06/17 03:04:29;;;;;;;5.45;2.63;;;18.50;77.20;;;;;;5028775;28;20056;-69
2021/06/17 03:06:55;;;;;;;9.07;2.75;;;18.50;77.30;;;;;;5030087;28;20148;-69
2021/06/17 03:09:54;;;;;;;6.63;2.85;;;18.50;77.10;;;;;;5029858;28;20108;-69
2021/06/17 03:12:25;;;;;;;6.43;2.38;;;18.60;77.30;;;;;;5029446;28;20045;-69
2021/06/17 03:14:53;;;;;;;8.20;2.47;;;18.50;77.40;;;;;;5029843;28;20026;-70
2021/06/17 03:17:20;;;;;;;6.20;2.90;;;18.60;77.70;;;;;;5029589;28;20033;-69
2021/06/17 03:19:51;;;;;;;9.45;3.00;;;18.60;78.00;;;;;;5029796;28;20029;-69
2021/06/17 03:22:17;;;;;;;8.30;2.97;;;18.60;78.30;;;;;;5029706;28;20104;-69
2021/06/17 03:24:45;;;;;;;3.72;2.35;;;18.60;78.70;;;;;;5029660;28;20029;-69
2021/06/17 03:27:11;;;;;;;8.77;2.88;;;18.60;78.30;;;;;;5028414;28;20405;-70
2021/06/17 03:29:49;;;;;;;7.32;2.67;;;18.70;77.60;;;;;;5029581;28;20029;-69
2021/06/17 03:32:17;;;;;;;5.25;2.85;;;18.80;77.90;;;;;;5029471;28;20033;-70
2021/06/17 03:34:45;;;;;;;7.00;3.08;;;18.90;77.50;;;;;;5029542;28;20033;-70
2021/06/17 03:37:14;;;;;;;5.53;2.72;;;18.90;77.60;;;;;;5029511;28;20045;-69
2021/06/17 03:39:42;;;;;;;5.43;2.70;;;18.90;77.30;;;;;;5029413;28;20414;-69
2021/06/17 03:42:09;;;;;;;5.97;3.10;;;19.00;77.30;;;;;;5028238;28;20021;-70
2021/06/17 03:44:36;;;;;;;4.65;2.60;;;19.10;77.30;;;;;;5029400;28;20040;-70
2021/06/17 03:47:03;;;;;;;5.15;2.40;;;19.10;77.10;;;;;;5029455;28;20036;-70
2021/06/17 03:49:30;;;;;;;9.75;3.58;;;19.10;77.10;;;;;;5029100;28;20541;-69
2021/06/17 03:51:57;;;;;;;6.63;2.45;;;19.20;77.00;;;;;;5028883;28;20104;-69
2021/06/17 03:54:26;;;;;;;11.32;3.15;;;19.30;76.60;;;;;;5027851;28;20128;-70
2021/06/17 03:56:58;;;;;;;5.38;3.30;;;19.50;76.50;;;;;;5027829;28;20025;-70
2021/06/17 03:59:29;;;;;;;4.60;2.60;;;19.60;76.10;;;;;;5028777;28;20091;-69
2021/06/17 04:01:55;;;;;;;4.72;2.65;;;19.90;75.60;;;;;;5027895;28;20086;-69
2021/06/17 04:04:21;;;;;;;5.28;2.58;;;20.20;74.20;;;;;;5028968;28;20021;-70
2021/06/17 04:06:58;;;;;;;8.98;3.10;;;20.50;73.40;;;;;;5027615;28;20036;-70
2021/06/17 04:09:36;;;;;;;4.80;2.85;;;20.90;72.40;;;;;;5028699;28;20037;-69
2021/06/17 04:12:14;;;;;;;5.15;2.92;;;21.20;71.00;;;;;;5028753;28;20029;-69
2021/06/17 04:14:43;;;;;;;6.25;2.50;;;21.30;70.80;;;;;;5028813;28;20030;-70
2021/06/17 04:17:12;;;;;;;8.93;2.60;;;21.50;70.20;;;;;;5028982;28;20029;-70
2021/06/17 04:19:38;;;;;;;6.40;2.72;;;21.60;69.90;;;;;;5028559;28;20117;-69
2021/06/17 04:22:07;;;;;;;5.45;2.28;;;21.70;69.90;;;;;;5028751;28;20035;-69
2021/06/17 04:24:38;;;;;;;10.90;3.08;;;21.70;69.70;;;;;;5028685;28;20161;-69
2021/06/17 04:27:04;;;;;;;8.60;2.55;;;21.90;69.40;;;;;;5027423;28;20029;-69
2021/06/17 04:29:34;;;;;;;6.43;2.70;;;21.90;69.10;;;;;;5028823;28;20040;-70
2021/06/17 04:32:02;;;;;;;5.35;2.40;;;22.00;69.30;;;;;;5028602;28;20414;-69
2021/06/17 04:34:28;;;;;;;5.57;2.75;;;22.10;68.50;;;;;;5027480;28;20028;-70
2021/06/17 04:36:54;;;;;;;6.03;3.65;;;22.20;68.40;;;;;;5028344;28;20130;-69
2021/06/17 04:39:26;;;;;;;5.82;2.33;;;22.30;68.30;;;;;;5027727;28;20101;-69
2021/06/17 04:41:53;;;;;;;12.07;2.78;;;22.50;68.00;;;;;;5028500;28;20037;-70
2021/06/17 04:44:20;;;;;;;3.85;2.78;;;22.60;67.80;;;;;;5028419;28;20044;-69
2021/06/17 04:46:47;;;;;;;6.95;3.08;;;22.70;67.50;;;;;;5028360;28;20030;-70
2021/06/17 04:49:15;;;;;;;6.07;3.17;;;22.80;67.70;;;;;;5028330;28;20024;-69
2021/06/17 04:51:42;;;;;;;7.00;2.35;;;22.80;67.40;;;;;;5028322;28;20096;-69
2021/06/17 04:54:09;;;;;;;4.90;2.78;;;22.90;67.30;;;;;;5028196;28;20375;-70
2021/06/17 04:56:35;;;;;;;7.88;2.88;;;23.00;67.20;;;;;;5028435;28;20045;-70
2021/06/17 04:59:01;;;;;;;5.65;3.25;;;23.00;66.80;;;;;;5028438;28;20030;-70
2021/06/17 05:01:26;;;;;;;7.20;2.70;;;23.10;66.50;;;;;;5028027;28;20037;-69
2021/06/17 05:03:52;;;;;;;7.90;2.50;;;23.20;66.00;;;;;;5028489;28;20405;-70
2021/06/17 05:06:19;;;;;;;7.65;3.30;;;23.30;65.60;;;;;;5026851;28;20088;-69
2021/06/17 05:11:29;;;;;;;10.05;3.67;;;23.60;65.00;;;;;;5028210;28;20163;-70
2021/06/17 05:13:56;;;;;;;5.38;2.92;;;23.70;64.80;;;;;;5027564;28;20108;-70
2021/06/17 05:16:21;;;;;;;7.03;3.08;;;23.80;65.10;;;;;;5028259;28;20176;-70
2021/06/17 05:18:47;;;;;;;4.13;2.38;;;24.00;65.00;;;;;;5028106;28;20037;-69
2021/06/17 05:21:13;;;;;;;6.32;2.90;;;24.10;64.20;;;;;;5028191;28;20819;-71
2021/06/17 05:23:40;;;;;;;4.90;2.65;;;24.30;63.60;;;;;;5026604;28;20030;-68
2021/06/17 05:26:06;;;;;;;10.45;2.97;;;24.40;63.00;;;;;;5028086;28;20034;-70
2021/06/17 05:28:32;;;;;;;5.15;2.70;;;24.50;62.80;;;;;;5028151;28;20025;-68
2021/06/17 05:31:01;;;;;;;7.80;2.40;;;24.50;62.60;;;;;;5028106;28;20367;-70
2021/06/17 05:33:30;;;;;;;6.07;3.28;;;24.50;62.90;;;;;;5027729;28;20038;-70
2021/06/17 05:35:56;;;;;;;4.75;2.50;;;24.70;62.20;;;;;;5026478;28;20029;-69
2021/06/17 05:38:23;;;;;;;4.57;2.47;;;24.90;61.80;;;;;;5027934;28;20026;-70
2021/06/17 05:40:50;;;;;;;9.27;3.00;;;25.10;59.30;;;;;;5027825;28;20029;-70
2021/06/17 05:43:18;;;;;;;8.02;3.05;;;25.40;58.70;;;;;;5027686;28;20100;-70
2021/06/17 05:45:43;;;;;;;5.47;2.95;;;25.80;56.50;;;;;;5027903;28;20474;-70
2021/06/17 05:48:09;;;;;;;7.85;3.50;;;26.60;54.80;;;;;;5027740;28;20032;-70
2021/06/17 05:50:35;;;;;;;6.70;2.45;;;27.40;53.30;;;;;;5029839;28;20038;-70
2021/06/17 05:53:01;;;;;;;5.13;2.72;;;28.00;49.20;;;;;;5031404;28;20036;-70
2021/06/17 05:55:27;;;;;;;4.53;2.72;;;28.70;47.20;;;;;;5031116;28;20035;-70
2021/06/17 05:57:53;;;;;;;3.90;1.80;;;29.70;45.40;;;;;;5031182;28;20179;-71
2021/06/17 06:00:18;;;;;;;5.03;2.13;;;31.20;40.50;;;;;;5030064;28;20021;-71
2021/06/17 06:02:44;;;;;;;3.90;2.30;;;32.30;38.10;;;;;;5031230;28;20426;-70
2021/06/17 06:05:10;;;;;;;4.68;2.03;;;33.30;36.60;;;;;;5029814;28;20112;-71
2021/06/17 06:07:38;;;;;;;9.85;2.55;;;34.20;33.70;;;;;;5031039;28;20080;-71
2021/06/17 06:10:05;;;;;;;6.60;2.30;;;34.20;33.80;;;;;;5029718;28;20032;-71
2021/06/17 06:12:31;;;;;;;4.63;1.95;;;35.20;32.50;;;;;;5030982;28;20037;-71
2021/06/17 06:14:56;;;;;;;3.60;2.30;;;35.70;31.20;;;;;;5030983;28;20092;-71
2021/06/17 06:17:22;;;;;;;6.80;2.58;;;36.10;30.30;;;;;;5030678;28;20026;-71
2021/06/17 06:19:48;;;;;;;7.50;2.30;;;37.20;29.30;;;;;;5030784;28;20033;-71
2021/06/17 06:22:13;;;;;;;4.25;2.25;;;37.20;29.10;;;;;;5030803;28;20034;-71
2021/06/17 06:24:39;;;;;;;2.97;2.22;;;36.70;28.90;;;;;;5030827;28;20040;-71
2021/06/17 06:27:06;;;;;;;5.00;2.08;;;37.00;29.00;;;;;;5030728;28;20029;-71
2021/06/17 06:29:32;;;;;;;7.05;2.70;;;36.90;28.80;;;;;;5030475;28;20029;-71
2021/06/17 06:31:58;;;;;;;6.80;2.30;;;36.80;28.90;;;;;;5030623;28;20041;-71
2021/06/17 06:34:25;;;;;;;4.05;2.10;;;36.80;28.80;;;;;;5030622;28;20205;-71
2021/06/17 06:36:50;;;;;;;7.60;2.42;;;36.60;28.70;;;;;;5030498;28;20049;-71
2021/06/17 06:39:17;;;;;;;8.45;2.83;;;36.60;29.00;;;;;;5030282;28;20080;-70
2021/06/17 06:41:43;;;;;;;7.07;2.65;;;36.90;28.90;;;;;;5030612;28;20022;-70
2021/06/17 06:44:10;;;;;;;3.83;2.20;;;37.30;28.60;;;;;;5030615;28;20033;-70
2021/06/17 06:46:40;;;;;;;2.15;1.88;;;37.30;28.50;;;;;;5030431;28;20037;-70
2021/06/17 06:49:06;;;;;;;3.20;2.17;;;37.40;28.20;;;;;;5029163;28;20033;-69
2021/06/17 06:51:36;;;;;;;5.85;2.40;;;37.40;28.00;;;;;;5028738;28;20026;-70
2021/06/17 06:54:02;;;;;;;4.53;2.50;;;37.70;27.80;;;;;;5030292;28;20429;-70
2021/06/17 06:56:28;;;;;;;5.65;2.67;;;37.40;27.30;;;;;;5029038;28;20033;-68
2021/06/17 06:58:54;;;;;;;4.63;2.33;;;37.10;28.30;;;;;;5030221;28;20041;-70
2021/06/17 07:01:20;;;;;;;4.80;2.42;;;36.90;27.80;;;;;;5029419;28;20537;-70
2021/06/17 07:03:46;;;;;;;3.38;2.03;;;36.80;27.70;;;;;;5030170;28;20021;-69
2021/06/17 07:06:11;;;;;;;3.20;2.15;;;36.40;27.90;;;;;;5029875;28;20112;-69
2021/06/17 07:08:37;;;;;;;4.72;2.00;;;36.30;28.10;;;;;;5029929;28;20029;-69
2021/06/17 07:11:03;;;;;;;6.00;2.28;;;36.40;28.10;;;;;;5030038;28;20478;-72
2021/06/17 07:13:29;;;;;;;5.45;2.33;;;35.90;27.70;;;;;;5029674;28;20037;-69
2021/06/17 07:15:55;;;;;;;4.40;2.05;;;35.90;28.40;;;;;;5029818;28;20033;-69
2021/06/17 07:18:21;;;;;;;4.78;2.35;;;36.10;28.50;;;;;;5029791;28;20057;-70
2021/06/17 07:20:46;;;;;;;4.60;2.40;;;36.10;28.60;;;;;;5029760;28;20065;-70
2021/06/17 07:23:12;;;;;;;6.32;2.10;;;36.10;28.50;;;;;;5029690;28;20025;-70
2021/06/17 07:25:38;;;;;;;4.55;2.40;;;36.00;28.40;;;;;;5029688;28;20425;-70
2021/06/17 07:28:04;;;;;;;5.60;2.55;;;35.80;28.60;;;;;;5029687;28;20033;-69
2021/06/17 07:30:30;;;;;;;5.13;2.45;;;35.80;29.10;;;;;;5029385;28;20025;-69
2021/06/17 07:32:57;;;;;;;5.47;1.83;;;35.70;29.20;;;;;;5029580;28;20124;-69
2021/06/17 07:35:23;;;;;;;3.17;1.90;;;35.40;29.70;;;;;;5029386;28;20060;-69
2021/06/17 07:37:49;;;;;;;8.85;2.58;;;34.90;29.70;;;;;;5029293;28;20123;-69
2021/06/17 07:40:16;;;;;;;5.15;2.30;;;34.90;30.00;;;;;;5029371;28;20030;-70
2021/06/17 07:42:42;;;;;;;5.93;2.75;;;34.80;30.50;;;;;;5029457;28;20028;-69
2021/06/17 07:45:09;;;;;;;10.80;2.28;;;34.50;29.70;;;;;;5029230;28;20029;-69
2021/06/17 07:47:35;;;;;;;5.50;2.60;;;34.30;31.10;;;;;;5027965;28;20036;-70
2021/06/17 07:50:02;;;;;;;10.77;2.80;;;34.50;31.80;;;;;;5029182;28;20039;-69
2021/06/17 07:52:27;;;;;;;3.50;2.03;;;34.40;32.20;;;;;;5029119;28;20025;-68
2021/06/17 07:54:53;;;;;;;8.02;2.30;;;34.30;31.80;;;;;;5029130;28;20036;-70
2021/06/17 07:57:18;;;;;;;3.60;2.47;;;34.60;31.50;;;;;;5028924;28;20029;-69
2021/06/17 07:59:44;;;;;;;6.70;2.92;;;34.60;31.80;;;;;;5029082;28;20034;-69
2021/06/17 08:02:10;;;;;;;10.68;2.47;;;34.80;31.90;;;;;;5028976;28;20083;-69
2021/06/17 08:04:35;;;;;;;11.02;2.70;;;34.70;31.30;;;;;;5028919;28;20394;-69
2021/06/17 08:07:01;;;;;;;6.22;3.03;;;34.40;32.00;;;;;;5028971;28;20448;-69
2021/06/17 08:09:27;;;;;;;4.80;2.55;;;34.40;32.50;;;;;;5028524;28;20033;-70
2021/06/17 08:11:53;;;;;;;9.30;2.97;;;34.50;33.30;;;;;;5028737;28;20457;-69
2021/06/17 08:14:24;;;;;;;7.03;3.17;;;34.60;32.20;;;;;;5027725;28;20154;-69
2021/06/17 08:16:51;;;;;;;4.88;3.03;;;34.60;33.20;;;;;;5028824;28;20022;-69
2021/06/17 08:19:17;;;;;;;5.18;2.67;;;34.70;33.80;;;;;;5028512;28;20116;-68
2021/06/17 08:21:43;;;;;;;5.13;2.70;;;34.80;31.70;;;;;;5028834;28;20108;-69
2021/06/17 08:24:09;;;;;;;9.25;3.20;;;34.50;32.70;;;;;;5028835;28;20044;-68
2021/06/17 08:26:35;;;;;;;6.93;3.33;;;34.50;33.50;;;;;;5028588;28;20107;-69
2021/06/17 08:29:02;;;;;;;5.38;2.72;;;34.80;32.70;;;;;;5028472;28;20025;-69
2021/06/17 08:31:28;;;;;;;5.30;2.88;;;34.50;32.30;;;;;;5028263;28;20047;-69
2021/06/17 08:33:55;;;;;;;11.52;3.00;;;34.30;33.70;;;;;;5028448;28;20073;-70
2021/06/17 08:36:21;;;;;;;4.75;2.88;;;34.60;34.40;;;;;;5028495;28;20103;-69
2021/06/17 08:38:47;;;;;;;3.97;2.58;;;35.00;32.50;;;;;;5028392;28;20033;-70
2021/06/17 08:41:13;;;;;;;3.90;2.90;;;35.20;31.70;;;;;;5028436;28;20767;-70
2021/06/17 08:43:39;;;;;;;5.10;2.80;;;35.10;32.00;;;;;;5026960;28;20855;-68
2021/06/17 08:46:05;;;;;;;6.93;3.42;;;34.70;32.10;;;;;;5026876;28;20120;-70
2021/06/17 08:48:31;;;;;;;4.35;3.08;;;34.40;33.00;;;;;;5028323;28;20069;-69
2021/06/17 08:50:57;;;;;;;6.25;3.20;;;34.80;33.40;;;;;;5028217;28;20115;-69
2021/06/17 08:53:23;;;;;;;7.00;2.95;;;34.80;33.90;;;;;;5028088;28;20042;-69
2021/06/17 08:55:49;;;;;;;5.88;3.58;;;35.00;33.50;;;;;;5028452;28;20025;-70
2021/06/17 08:58:16;;;;;;;6.85;2.95;;;34.90;32.90;;;;;;5028293;28;20043;-70
2021/06/17 09:00:45;;;;;;;5.72;2.70;;;34.70;34.00;;;;;;5028351;28;20049;-69
2021/06/17 09:03:15;;;;;;;6.40;3.00;;;34.60;33.20;;;;;;5028143;28;20425;-68
2021/06/17 09:05:50;;;;;;;6.35;2.80;;;34.80;33.80;;;;;;5028249;28;20028;-70
2021/06/17 09:08:33;;;;;;;9.05;2.88;;;34.60;33.80;;;;;;5028138;28;20520;-69
2021/06/17 09:10:59;;;;;;;7.55;3.10;;;34.80;34.10;;;;;;5028064;28;20045;-69
2021/06/17 09:13:32;;;;;;;5.97;3.67;;;34.90;33.60;;;;;;5027944;28;20087;-69
2021/06/17 09:15:59;;;;;;;5.07;3.00;;;35.00;33.60;;;;;;5028197;28;20028;-69
2021/06/17 09:18:32;;;;;;;5.68;3.17;;;34.90;33.20;;;;;;5028027;28;20422;-69
2021/06/17 09:21:06;;;;;;;6.80;4.22;;;34.80;33.40;;;;;;5028019;28;20086;-69
2021/06/17 09:23:38;;;;;;;9.43;3.08;;;34.90;33.20;;;;;;5027889;28;20632;-67
2021/06/17 09:26:19;;;;;;;7.50;2.83;;;35.10;33.30;;;;;;5031232;28;20025;-69
2021/06/17 09:29:04;;;;;;;4.32;2.50;;;35.30;32.50;;;;;;5031795;28;20490;-70
2021/06/17 09:31:36;;;;;;;10.55;3.10;;;34.80;32.30;;;;;;5031678;28;20513;-69
2021/06/17 09:34:04;;;;;;;4.22;2.58;;;34.70;31.20;;;;;;5030398;28;20452;-69
2021/06/17 09:36:32;;;;;;;7.20;3.30;;;34.60;31.80;;;;;;5031583;28;20540;-69
2021/06/17 09:39:09;;;;;;;7.80;2.47;;;34.80;33.10;;;;;;5031565;28;20072;-69
2021/06/17 09:41:43;;;;;;;3.75;2.35;;;34.90;32.10;;;;;;5030274;28;20795;-69
2021/06/17 09:44:28;;;;;;;7.60;2.70;;;34.50;32.10;;;;;;5031720;28;20827;-69
2021/06/17 09:47:14;;;;;;;9.95;2.65;;;34.90;31.70;;;;;;5031702;28;20474;-69
2021/06/17 09:49:40;;;;;;;;;;;34.90;31.30;;;;;;5031986;28;20075;-68
2021/06/17 09:52:07;;;;;;;6.65;2.40;;;34.90;31.90;;;;;;5031364;28;19959;-69
2021/06/17 09:54:33;;;;;;;8.63;2.38;;;34.80;32.00;;;;;;5031549;28;20072;-69
2021/06/17 09:57:15;;;;;;;4.18;2.65;;;34.60;32.30;;;;;;5031596;28;20112;-68
2021/06/17 09:59:47;;;;;;;4.15;2.63;;;34.30;33.40;;;;;;5030073;28;20030;-69
2021/06/17 10:02:22;;;;;;;7.47;3.13;;;33.90;33.00;;;;;;5031368;28;20056;-68
2021/06/17 10:04:48;;;;;;;6.00;2.55;;;33.60;34.60;;;;;;5031187;28;20021;-69
2021/06/17 10:07:17;;;;;;;5.82;3.13;;;33.40;34.20;;;;;;5031270;28;20457;-68
2021/06/17 10:09:44;;;;;;;5.15;2.70;;;33.00;33.80;;;;;;5031331;28;20022;-71
2021/06/17 10:12:10;;;;;;;4.35;2.67;;;32.50;34.80;;;;;;5029721;28;20072;-71
2021/06/17 10:14:36;;;;;;;11.10;2.75;;;32.40;36.70;;;;;;5030999;28;20088;-70
2021/06/17 10:17:04;;;;;;;5.90;2.88;;;32.20;36.20;;;;;;5030206;28;20033;-70
2021/06/17 10:19:32;;;;;;;5.03;2.47;;;32.00;35.90;;;;;;5030841;28;20112;-70
2021/06/17 10:21:58;;;;;;;5.30;2.95;;;31.80;37.10;;;;;;5030809;28;20053;-70
2021/06/17 10:24:26;;;;;;;6.00;3.35;;;31.80;36.70;;;;;;5031005;28;20116;-71
2021/06/17 10:26:57;;;;;;;5.63;2.58;;;31.70;37.80;;;;;;5030918;28;20048;-71
2021/06/17 10:29:26;;;;;;;4.18;2.67;;;31.40;37.00;;;;;;5030731;28;20098;-70
2021/06/17 10:31:53;;;;;;;8.32;3.10;;;31.30;37.70;;;;;;5029427;28;20079;-70
2021/06/17 10:34:24;;;;;;;4.25;3.10;;;31.30;37.70;;;;;;5030725;28;20045;-70
2021/06/17 10:37:12;;;;;;;7.43;2.90;;;31.30;38.00;;;;;;5028263;28;20061;-70
2021/06/17 10:40:05;;;;;;;5.82;2.95;;;31.20;38.00;;;;;;5029233;28;20043;-70
2021/06/17 10:42:47;;;;;;;4.63;2.45;;;31.10;36.80;;;;;;5024012;28;20116;-71
2021/06/17 10:45:39;;;;;;;3.80;2.88;;;31.00;37.30;;;;;;5030638;28;20049;-70
2021/06/17 10:48:08;;;;;;;3.65;2.53;;;31.10;36.10;;;;;;5027937;28;20151;-70
2021/06/17 10:50:53;;;;;;;5.45;2.28;;;30.90;36.60;;;;;;5030341;28;20486;-70
2021/06/17 10:53:39;;;;;;;6.18;2.53;;;30.50;37.70;;;;;;5028789;28;20041;-70
2021/06/17 10:56:08;;;;;;;6.15;2.72;;;30.40;37.70;;;;;;5028975;28;20033;-70
2021/06/17 10:58:45;;;;;;;4.75;2.33;;;30.50;38.30;;;;;;5030185;28;20025;-70
2021/06/17 11:01:30;;;;;;;4.85;2.70;;;30.70;38.00;;;;;;5028996;28;20453;-70
2021/06/17 11:04:01;;;;;;;5.72;2.90;;;30.80;38.40;;;;;;5030175;28;20028;-71
2021/06/17 11:06:53;;;;;;;7.82;2.25;;;30.60;36.40;;;;;;5030277;28;20033;-70
2021/06/17 11:09:49;;;;;;;3.97;2.05;;;30.40;36.80;;;;;;5027196;28;20451;-70
2021/06/17 11:12:18;;;;;;;5.37;2.40;;;30.50;37.20;;;;;;5030076;28;20056;-69
2021/06/17 11:14:51;;;;;;;4.13;2.13;;;30.60;37.60;;;;;;5030190;28;20634;-71
2021/06/17 11:17:37;;;;;;;6.88;2.50;;;30.60;36.80;;;;;;5029939;28;20490;-71
2021/06/17 11:20:24;;;;;;;5.15;2.65;;;30.70;37.00;;;;;;5029934;28;20394;-70
2021/06/17 11:22:58;;;;;;;5.82;2.85;;;30.70;37.60;;;;;;5029640;28;20637;-71
2021/06/17 11:25:24;;;;;;;5.13;2.70;;;30.70;36.70;;;;;;5029605;28;20064;-69
2021/06/17 11:27:58;;;;;;;3.78;2.30;;;30.80;36.30;;;;;;5029698;28;20172;-71
2021/06/17 11:30:42;;;;;;;3.80;1.90;;;30.80;36.80;;;;;;5029764;28;20029;-70
2021/06/17 11:33:19;;;;;;;6.25;2.45;;;31.00;36.20;;;;;;5029480;28;20039;-71
2021/06/17 11:35:47;;;;;;;6.05;2.38;;;31.20;36.90;;;;;;5029711;28;20079;-70
2021/06/17 11:38:21;;;;;;;6.25;2.53;;;31.20;35.90;;;;;;5029482;28;20054;-71
2021/06/17 11:40:46;;;;;;;5.13;2.72;;;31.20;37.20;;;;;;5029503;28;20083;-69
2021/06/17 11:43:13;;;;;;;4.47;2.60;;;31.30;36.70;;;;;;5029538;28;20034;-70
2021/06/17 11:45:39;;;;;;;11.90;2.50;;;31.30;37.20;;;;;;5029149;28;20031;-71
2021/06/17 11:48:08;;;;;;;4.05;2.60;;;31.30;35.90;;;;;;5029193;28;20108;-69
2021/06/17 11:50:48;;;;;;;6.97;3.13;;;31.40;37.20;;;;;;5029254;28;20049;-70
2021/06/17 11:53:17;;;;;;;4.88;3.00;;;31.50;36.70;;;;;;5029112;28;20037;-71
2021/06/17 11:56:01;;;;;;;7.90;3.10;;;31.50;37.40;;;;;;5029249;28;20029;-71
2021/06/17 11:58:28;;;;;;;5.80;2.28;;;31.50;38.50;;;;;;5029131;28;20064;-70
2021/06/17 12:00:55;;;;;;;5.80;2.70;;;31.40;37.40;;;;;;5029123;28;20029;-70
2021/06/17 12:03:25;;;;;;;5.43;2.60;;;31.40;35.40;;;;;;5028951;28;20036;-70
2021/06/17 12:06:13;;;;;;;4.75;2.88;;;31.40;36.60;;;;;;5029022;28;20104;-70
2021/06/17 12:08:39;;;;;;;9.65;3.00;;;31.20;35.80;;;;;;5029045;28;20022;-71
2021/06/17 12:11:21;;;;;;;7.88;3.15;;;31.10;36.00;;;;;;5029007;28;20086;-70
2021/06/17 12:13:51;;;;;;;6.15;2.45;;;31.10;36.00;;;;;;5028836;28;20120;-70
2021/06/17 12:16:18;;;;;;;6.78;2.42;;;31.20;36.90;;;;;;5029055;28;20029;-70
2021/06/17 12:18:43;;;;;;;6.57;2.30;;;31.10;36.30;;;;;;5028876;28;20490;-69
2021/06/17 12:21:09;;;;;;;5.95;2.70;;;31.00;37.10;;;;;;5028623;28;20036;-71
2021/06/17 12:23:35;;;;;;;8.23;3.28;;;31.00;36.80;;;;;;5028694;28;20030;-69
2021/06/17 12:26:10;;;;;;;7.82;2.83;;;31.10;35.70;;;;;;5028769;28;20048;-70
2021/06/17 12:28:53;;;;;;;7.90;2.75;;;31.20;36.50;;;;;;5028584;28;20021;-70
2021/06/17 12:31:33;;;;;;;4.97;2.40;;;31.10;37.40;;;;;;5027272;28;20363;-70
2021/06/17 12:34:19;;;;;;;5.68;3.28;;;31.20;38.00;;;;;;5028725;28;20033;-71
2021/06/17 12:37:01;;;;;;;10.20;2.53;;;31.20;38.80;;;;;;5027021;28;20052;-70
2021/06/17 12:39:27;;;;;;;9.52;3.00;;;31.20;38.10;;;;;;5028379;28;20120;-70
2021/06/17 12:41:53;;;;;;;4.47;2.38;;;31.20;37.80;;;;;;5028542;28;20113;-69
2021/06/17 12:44:28;;;;;;;4.47;2.47;;;31.20;36.00;;;;;;5028596;28;20036;-70
2021/06/17 12:47:07;;;;;;;9.75;3.42;;;31.00;36.40;;;;;;5027211;28;20033;-70
2021/06/17 12:52:59;;;;;;;6.72;3.33;;;30.80;38.10;;;;;;5025924;28;20530;-70
2021/06/17 12:55:35;;;;;;;7.50;3.53;;;30.70;38.00;;;;;;5026941;28;20036;-70
2021/06/17 12:58:01;;;;;;;6.95;2.47;;;30.60;37.90;;;;;;5028213;28;20636;-70
2021/06/17 13:00:26;;;;;;;9.05;2.80;;;30.60;38.40;;;;;;5032946;28;20094;-70
2021/06/17 13:02:53;;;;;;;8.82;2.50;;;30.50;38.90;;;;;;5034846;28;20018;-70
2021/06/17 13:05:21;;;;;;;5.78;2.22;;;30.60;39.20;;;;;;5033529;28;20124;-71